Aviation Digital Data Service (ADDS)

Output produced by METARs form (0244 UTC 24 July 2017)
found at http://www.aviationweather.gov/adds/metars/
 
KMAF 232321Z 2400/2424 17008KT P6SM FEW070 BKN120 
     FM240900 15004KT P6SM BKN200
       
KMBG 232323Z 2400/2424 06004KT P6SM SKC 
     FM240300 09007KT P6SM FEW250 
     FM240900 14009KT P6SM SCT250 
     FM241500 14013G20KT P6SM BKN200
       
KMBS 232332Z 2400/2424 30007KT P6SM SCT050 BKN100 
     FM240700 30010KT P6SM OVC007 
     FM241600 33010KT P6SM BKN035 
     FM242000 36013KT P6SM SCT050
       
KMCB 232340Z 2400/2424 25005KT P6SM VCSH BKN012 
     FM240700 VRB03KT 4SM BR OVC008 
     FM241330 26004KT 6SM BR OVC012 
     FM241500 26005KT P6SM VCTS SCT015 BKN035CB
       
KMCE 232320Z 2400/2424 32008KT P6SM SKC
       
TAF KMCF 240000Z 2400/2506 20006KT 9999 FEW020 BKN250 QNH2999INS 
     BECMG 2415/2416 22009KT 9999 VCTS SCT030CB BKN250 QNH2997INS 
     TEMPO 2416/2422 VRB12G18KT 6000 -TSRA BKN025CB 
     BECMG 2423/2424 25006KT 9999 NSW SCT025 BKN250 QNH3004INS TX31/2419Z TN23/2406Z
       
KMCI 232320Z 2400/2424 03006KT P6SM FEW250
       
KMCK 232321Z 2400/2424 11007KT P6SM SKC 
     FM240600 16007KT P6SM FEW250 
     FM241600 18012KT P6SM SKC 
     FM241900 18014G22KT P6SM FEW250
       
KMCN 232337Z 2400/2424 17007KT P6SM VCSH BKN050 
     FM240400 23005KT P6SM SCT250 
     FM241500 24007KT P6SM SCT040 
     FM241700 24006KT P6SM VCSH SCT050 
     PROB30 2418/2424 4SM TSRA BKN035CB
       
KMCO 232326Z 2400/2424 20003KT P6SM BKN200 
     FM241400 22006KT P6SM SCT025 BKN200 
     FM241700 22008KT P6SM VCTS SCT040CB BKN120
       
KMCW 232320Z 2400/2424 34015KT P6SM FEW035 FEW050 
     FM240200 35006KT P6SM FEW040 
     FM241000 03004KT 4SM BR FEW060 
     TEMPO 2411/2413 03004KT 1SM BR BKN015 
     FM241400 09004KT P6SM BKN050
       
KMDT 240203Z 2402/2424 14007KT P6SM SCT008 BKN080 BKN100 
     FM240600 VRB03KT 2SM SHRA BR OVC015 
     FM241000 31004KT 4SM BR OVC007 
     FM241400 31007KT P6SM SCT250
       
KMDW 232323Z 2400/2424 32007KT P6SM SCT040 BKN110 
     FM241200 02011KT P6SM SCT015 BKN020 
     FM241800 03010KT P6SM SCT040
       
KMEI 232357Z 2400/2424 21005KT P6SM VCSH FEW050 
     FM240200 22005KT P6SM SKC 
     FM240900 VRB03KT P6SM BKN015 
     FM241500 23005KT P6SM SCT025 
     FM241900 20005KT P6SM VCTS SCT035CB 
     TEMPO 2420/2424 3SM TSRA BKN025CB
       
KMEM 240242Z 2403/2424 VRB03KT P6SM -SHRA VCTS SCT040CB OVC100 
     FM240430 VRB03KT P6SM VCSH SCT050 BKN100 
     FM240900 VRB03KT P6SM SCT100 BKN200 
     FM241600 23006KT P6SM SCT040
       
KMER 232320Z 2400/2424 33009KT P6SM SKC
       
KMFE 232335Z 2400/2424 15018G24KT P6SM SKC 
     FM240400 15012KT P6SM SKC 
     FM241100 14008KT P6SM SCT020 
     FM241600 16016G24KT P6SM FEW040
       
KMFR 232334Z 2400/2424 32010KT P6SM SCT100 
     FM240400 VRB03KT P6SM SCT060
       
TAF AMD KMGE 232225Z 2322/2503 23009KT 9999 VCTS SCT045CB BKN150 QNH2989INS 
     TEMPO 2322/2324 VRB12G18KT 8000 -TSRA BKN030CB 
     BECMG 2401/2402 22006KT 9999 NSW SCT020 BKN040 OVC200 QNH2991INS 
     BECMG 2414/2415 24009KT 9999 SCT040 BKN250 QNH2994INS 
     BECMG 2417/2418 28012KT 8000 -SHRA BKN030 QNH2997INS 
     TEMPO 2418/2423 28020G30KT 3200 TSRA OVC030CB 
     BECMG 2422/2423 28009KT 9999 NSW SCT030 BKN100 OVC200 QNH3000INS TX32/2322Z TN23/2409Z
       
KMGM 232339Z 2400/2424 23004KT P6SM VCTS SCT050CB 
     FM240100 20003KT P6SM SCT050 SCT100 
     FM240600 00000KT 4SM BR SCT012 SCT100 
     TEMPO 2408/2412 2SM BR 
     FM241300 23003KT P6SM SCT035 
     FM241800 25006KT P6SM VCTS SCT050CB
       
KMGW 232329Z 2400/2424 VRB05KT P6SM VCSH BKN040 
     TEMPO 2403/2404 3SM -TSRA BKN040CB 
     FM240600 25004KT 3SM BR VCSH BKN015 
     FM240800 26004KT 2SM BR BKN008 
     FM241400 27006KT P6SM SCT015 
     FM241800 27009KT P6SM VCTS BKN060CB
       
KMHK 232335Z 2400/2424 08005KT P6SM FEW250
       
KMHR 232320Z 2400/2424 26007KT P6SM SKC 
     FM240500 17005KT P6SM SKC
       
KMHT 232320Z 2400/2424 12003KT P6SM BKN120 
     FM241100 05005KT P6SM SCT015 BKN040 
     FM241300 05006KT P6SM -RA OVC015 
     FM241800 08013G20KT P6SM -RA OVC015 
     FM242200 06010KT 4SM BR OVC008
       
KMIA 232320Z 2400/2424 13007KT P6SM FEW030 SCT120 BKN200 
     FM240200 00000KT P6SM FEW030 SCT250 
     FM241600 13009KT P6SM SCT030 SCT250
       
TAF KMIB 240105Z 2401/2507 26006KT 9999 SKC QNH2978INS WND 15012KT AFT 2412 
     BECMG 2415/2416 18015G25KT 9999 FEW080 QNH2969INS 
     TEMPO 2500/2504 20025G35KT 6000 TSRA OVC080CB 
     BECMG 2503/2504 32006KT 9999 SCT100 QNH2976INS TX35/2420Z TN17/2410Z
       
KMIV 232349Z 2400/2424 11007KT P6SM VCSH SCT025 BKN035 
     FM240100 13005KT P6SM BKN040 
     FM240500 VRB03KT P6SM VCTS BKN025CB OVC040 
     TEMPO 2405/2409 VRB15G25KT 3SM -TSRA BKN010CB OVC025 
     FM241000 21004KT P6SM OVC025 
     FM241400 27007KT P6SM SCT015 BKN050 
     FM241900 32008KT P6SM SCT050 
     FM242300 36005KT P6SM SCT250
       
KMKE 240224Z 2402/2506 04013KT P6SM FEW003 BKN011 
     FM240700 36009KT P6SM BKN015 
     FM241600 02013KT P6SM BKN040 
     FM250300 03005KT P6SM FEW250
       
KMKL 240036Z 2401/2424 21007KT P6SM VCTS SCT045CB BKN150 
     TEMPO 2401/2402 VRB10G25KT 2SM +TSRA BKN025 BKN040CB 
     FM240230 21004KT P6SM VCSH SCT045 BKN150 
     FM240900 VRB03KT P6SM BKN200 
     TEMPO 2409/2413 4SM BR 
     FM241400 23004KT P6SM SCT040
       
KMKT 232327Z 2400/2424 01007KT P6SM SCT050 
     FM240600 07004KT P6SM SKC 
     FM241400 13007KT P6SM SKC
       
KMLB 232326Z 2400/2424 21003KT P6SM BKN200 
     FM241400 22006KT P6SM SCT025 BKN200 
     FM241900 12008KT P6SM VCTS SCT040CB BKN200
       
KMLI 232320Z 2400/2424 33011G18KT P6SM SKC 
     FM240100 35009KT P6SM SKC 
     FM240900 03005KT P6SM SKC 
     FM241500 05008KT P6SM FEW040
       
KMLS 240056Z 2401/2424 13011G16KT P6SM FEW200 
     FM240300 14014G21KT P6SM VCSH FEW120 
     FM240500 14014G21KT P6SM SKC 
     FM241200 24012KT P6SM SKC 
     FM241500 30015G24KT P6SM SKC 
     FM241800 33014G23KT P6SM SKC AMD NOT SKED
       
KMLU 232341Z 2400/2424 18008KT P6SM FEW035 BKN060 OVC080 
     FM240200 VRB03KT P6SM BKN040 BKN150 BKN250 
     FM240900 21004KT P6SM VCTS SCT015 BKN040CB OVC100 
     TEMPO 2414/2418 3SM -TSRA BR OVC015CB 
     FM242200 24008KT P6SM VCTS BKN040CB
       
KMMH 232320Z 2400/2424 28011KT P6SM VCSH BKN090 
     FM240100 26015G25KT P6SM FEW200 
     FM240600 VRB04KT P6SM SCT180
       
TAF AMD KMMT 240115Z 2401/2505 20012KT 9999 FEW040 FEW200 QNH2981INS 
     TEMPO 2401/2402 VRB15G35KT 1600 -TSRAGR BKN019CB OVC100 
     BECMG 2401/2402 VRB06KT 9999 SCT020 SCT200 QNH2992INS 
     BECMG 2414/2415 22009KT 9999 SCT050 SCT200 QNH2990INS 
     TEMPO 2419/2423 25015G25KT 4800 -TSRA BKN040CB OVC100 
     BECMG 2502/2503 VRB06KT 9999 SCT020 SCT200 QNH2994INS TX34/2417Z TN22/2410Z
       
KMOB 232353Z 2400/2424 23009KT P6SM FEW030 SCT250 
     FM240200 26004KT P6SM VCTS FEW030CB BKN200 
     FM241200 26004KT P6SM VCTS BKN050CB OVC100 
     TEMPO 2412/2416 3SM TSRA BKN030CB 
     FM241600 25009KT P6SM VCTS BKN050CB OVC100 
     TEMPO 2416/2420 3SM TSRA BKN050CB
       
KMOT 232320Z 2400/2424 15004KT P6SM SKC 
     FM241000 16007KT P6SM FEW110 FEW250 WS020/19040KT 
     FM241400 17011KT P6SM FEW100 SCT250 
     FM242300 20015KT P6SM SCT200
       
KMPV 232336Z 2400/2424 VRB03KT P6SM BKN100 
     FM240700 15006KT P6SM VCSH OVC060 
     FM241000 14006KT 6SM -SHRA BR OVC030 
     FM241600 13011G16KT 4SM +SHRA BR OVC020 
     FM242100 13008KT 6SM -SHRA BR OVC015
       
KMQY 232320Z 2400/2424 24006KT P6SM VCTS SCT050CB BKN150 
     FM240400 30003KT 6SM BR FEW050 SCT150 
     FM240900 32002KT 3SM BR SCT150 
     FM241200 22005KT P6SM SCT040
       
KMRY 232320Z 2400/2424 24010KT P6SM SKC 
     FM240400 24005KT P6SM BKN005 
     FM240600 20003KT P6SM OVC004 
     TEMPO 2413/2416 1/2SM FG OVC002 
     FM241700 00000KT P6SM SCT008 
     FM241900 24010KT P6SM SKC
       
KMRB 232327Z 2400/2424 24006KT P6SM FEW035 BKN120 
     FM240200 23004KT P6SM VCTS BKN060CB 
     FM240400 VRB03KT P6SM BKN080 
     FM241100 28005KT P6SM SCT250 
     FM241400 30007KT P6SM SCT035
       
KMSL 232338Z 2400/2424 20009KT P6SM VCSH SCT050 
     FM240100 VRB03KT P6SM SCT030 OVC100 
     FM240800 24004KT P6SM VCSH SCT040 
     FM241600 26005KT P6SM SCT040 
     PROB30 2418/2424 -TSRA BKN040CB
       
KMSO 240034Z 2401/2424 30014G20KT P6SM FEW150 
     FM240300 VRB05KT P6SM SKC 
     FM242100 30012G22KT P6SM SKC
       
KMSN 232320Z 2400/2424 34006KT P6SM FEW040 
     FM241200 02006KT 6SM BR BKN015 
     FM241500 04007KT P6SM BKN035 
     FM242100 06006KT P6SM SCT080
       
KMSP 240236Z 2403/2506 05007KT P6SM SKC 
     FM240500 07004KT P6SM SKC 
     FM241500 13008KT P6SM SKC
       
KMSS 232336Z 2400/2424 06008KT P6SM BKN100 
     FM240700 07010KT P6SM VCSH OVC070 
     FM240900 06010KT 6SM -SHRA BR OVC050 
     FM241200 07010KT 4SM +SHRA BR OVC030 
     FM242100 08011KT 5SM SHRA BR OVC015
       
KMSY 232340Z 2400/2424 26006KT P6SM FEW035 SCT120 BKN250 
     FM240600 25006KT P6SM VCSH SCT035 BKN100 
     FM240900 25006KT P6SM SCT025 BKN060 
     PROB30 2409/2412 4SM TSRA BKN025CB BKN030 
     FM241200 25008KT P6SM -SHRA VCTS SCT030CB BKN070
       
TAF AMD KMTC 240215Z 2402/2507 30006KT 9999 BKN035 QNH2972INS 
     TEMPO 2402/2403 26025G35KT 4800 -TSRA OVC040CB 
     BECMG 2407/2408 31009KT 6000 BR FEW005 BKN010 QNH2974INS 
     BECMG 2413/2414 31010G15KT 9999 NSW BKN010 QNH2985INS 
     BECMG 2416/2417 34015G25KT 9999 FEW010 BKN030 QNH2987INS 
     BECMG 2423/2424 35006KT 9999 SCT035 QNH2989INS TX22/2402Z TN15/2500Z LAST NO AMDS AFT 2403 NEXT 2409
       
KMTH 232324Z 2400/2424 10006KT P6SM SCT022 SCT250 
     FM241200 12006KT P6SM VCSH SCT025 SCT050 BKN250
       
KMTJ 240221Z 2402/2424 14012G20KT P6SM SCT100 BKN250 
     FM240300 14010KT P6SM FEW100 BKN250 
     FM240600 14006KT P6SM BKN200 
     FM241800 32005KT P6SM SCT090 BKN150 
     FM242100 23008KT P6SM VCTS BKN080CB OVC120
       
KMTN 232327Z 2400/2424 17005KT P6SM SCT025 BKN120 
     FM240300 12004KT 4SM SHRA VCTS BKN050CB 
     FM240600 18005KT P6SM BKN060 
     FM240900 24004KT P6SM BKN090 
     FM241300 28006KT P6SM SCT040 AMD NOT SKED 2402/2412
       
KMTW 232339Z 2400/2424 02007KT P6SM BKN070 
     FM240600 01008KT P6SM BKN021 
     FM240700 01008KT P6SM BKN015 
     FM241600 03010KT P6SM SCT040 BKN080 
     FM242100 04008KT P6SM SCT060
       
KMWH 232320Z 2400/2424 24014G23KT P6SM FEW200 
     FM240300 29017G23KT P6SM SKC 
     FM240600 34012KT P6SM SKC 
     FM242100 31008KT P6SM SKC
       
TAF KMXF 231900Z 2319/2501 21009KT 9999 SCT030 SCT080 QNH2992INS 
     BECMG 2321/2322 23009KT 9999 VCSH SCT040 BKN080 QNH2989INS 
     BECMG 2400/2401 22006KT 9999 NSW BKN030 BKN250 QNH2987INS 
     BECMG 2409/2410 21006KT 4800 BR BKN020 OVC250 QNH2992INS 
     BECMG 2414/2415 23009KT 9999 NSW SCT030 BKN080 OVC250 QNH3001INS 
     BECMG 2418/2419 23009KT 8000 -SHRA BKN030 OVC080 QNH2996INS 
     TEMPO 2420/2424 VRB15G25KT 3200 -TSRA OVC030CB TX32/2320Z TN23/2411Z LAST NO AMDS AFT 2323 NEXT 2411
       
KMYL 232338Z 2400/2424 23008KT P6SM SKC 
     FM240300 VRB03KT P6SM FEW150 SCT250
       
KMYR 232343Z 2400/2424 22013G18KT P6SM SCT015 BKN100 
     FM240500 22007KT P6SM SCT090 BKN200 
     FM241300 22011KT P6SM VCTS FEW025CB BKN050 
     FM241700 21013G18KT P6SM VCTS SCT030CB BKN045 
     TEMPO 2417/2421 3SM TSRA SCT015 BKN025CB OVC040 AMD NOT SKED